sensor_id;sensor_type;location;lat;lon;timestamp;pressure;altitude;pressure_sealevel;temperature;humidity
8039;BME280;4062;49.844;8.120;2023-03-31T00:00:36;98531.94;;;13.98;56.18
8039;BME280;4062;49.844;8.120;2023-03-31T00:02:38;98546.06;;;13.99;56.14
8039;BME280;4062;49.844;8.120;2023-03-31T00:04:42;98540.75;;;13.99;56.19
8039;BME280;4062;49.844;8.120;2023-03-31T00:06:46;98530.13;;;13.99;56.11
8039;BME280;4062;49.844;8.120;2023-03-31T00:08:47;98521.31;;;13.98;56.13
8039;BME280;4062;49.844;8.120;2023-03-31T00:10:51;98521.31;;;13.98;56.07
8039;BME280;4062;49.844;8.120;2023-03-31T00:12:52;98516.84;;;13.99;56.13
8039;BME280;4062;49.844;8.120;2023-03-31T00:14:54;98515.06;;;13.99;56.15
8039;BME280;4062;49.844;8.120;2023-03-31T00:16:55;98503.66;;;13.97;56.11
8039;BME280;4062;49.844;8.120;2023-03-31T00:18:57;98508.03;;;13.98;56.15
8039;BME280;4062;49.844;8.120;2023-03-31T00:21:19;98504.50;;;13.98;56.14
8039;BME280;4062;49.844;8.120;2023-03-31T00:23:33;98502.72;;;13.98;56.18
8039;BME280;4062;49.844;8.120;2023-03-31T00:25:40;98508.88;;;13.99;56.10
8039;BME280;4062;49.844;8.120;2023-03-31T00:27:42;98502.72;;;13.98;56.07
8039;BME280;4062;49.844;8.120;2023-03-31T00:29:44;98511.53;;;13.99;56.23
8039;BME280;4062;49.844;8.120;2023-03-31T00:31:45;98516.00;;;13.98;56.11
8039;BME280;4062;49.844;8.120;2023-03-31T00:33:47;98517.78;;;13.98;56.10
8039;BME280;4062;49.844;8.120;2023-03-31T00:35:50;98510.69;;;13.98;56.10
8039;BME280;4062;49.844;8.120;2023-03-31T00:37:52;98508.88;;;13.99;56.26
8039;BME280;4062;49.844;8.120;2023-03-31T00:39:56;98501.84;;;13.98;56.14
8039;BME280;4062;49.844;8.120;2023-03-31T00:41:58;98491.16;;;13.99;56.16
8039;BME280;4062;49.844;8.120;2023-03-31T00:46:19;98489.44;;;13.98;56.20
8039;BME280;4062;49.844;8.120;2023-03-31T00:48:23;98488.56;;;13.98;56.11
8039;BME280;4062;49.844;8.120;2023-03-31T00:50:28;98474.44;;;13.97;56.09
8039;BME280;4062;49.844;8.120;2023-03-31T00:52:33;98469.13;;;13.97;56.12
8039;BME280;4062;49.844;8.120;2023-03-31T00:54:38;98471.72;;;13.99;56.28
8039;BME280;4062;49.844;8.120;2023-03-31T00:56:42;98460.25;;;13.98;56.18
8039;BME280;4062;49.844;8.120;2023-03-31T00:58:45;98461.09;;;13.99;56.07
8039;BME280;4062;49.844;8.120;2023-03-31T01:00:49;98447.91;;;13.97;56.02
8039;BME280;4062;49.844;8.120;2023-03-31T01:02:55;98451.41;;;13.98;56.15
8039;BME280;4062;49.844;8.120;2023-03-31T01:04:59;98454.94;;;13.98;56.15
8039;BME280;4062;49.844;8.120;2023-03-31T01:07:21;98437.28;;;13.97;56.09
8039;BME280;4062;49.844;8.120;2023-03-31T01:09:28;98439.00;;;13.98;56.21
8039;BME280;4062;49.844;8.120;2023-03-31T01:11:35;98427.50;;;13.98;56.16
8039;BME280;4062;49.844;8.120;2023-03-31T01:13:38;98429.31;;;13.97;56.11
8039;BME280;4062;49.844;8.120;2023-03-31T01:15:43;98427.50;;;13.98;56.10
8039;BME280;4062;49.844;8.120;2023-03-31T01:17:45;98424.84;;;13.98;56.18
8039;BME280;4062;49.844;8.120;2023-03-31T01:24:50;98406.25;;;13.98;56.22
8039;BME280;4062;49.844;8.120;2023-03-31T01:28:20;98400.94;;;13.98;56.21
8039;BME280;4062;49.844;8.120;2023-03-31T01:30:24;98400.94;;;13.98;56.09
8039;BME280;4062;49.844;8.120;2023-03-31T01:39:46;98378.84;;;13.97;56.16
8039;BME280;4062;49.844;8.120;2023-03-31T01:42:51;98374.38;;;13.98;56.09
8039;BME280;4062;49.844;8.120;2023-03-31T01:46:35;98369.16;;;13.96;56.18
8039;BME280;4062;49.844;8.120;2023-03-31T01:48:48;98363.75;;;13.98;56.15
8039;BME280;4062;49.844;8.120;2023-03-31T01:50:57;98353.13;;;13.98;56.12
8039;BME280;4062;49.844;8.120;2023-03-31T01:55:37;98344.34;;;13.97;56.06
8039;BME280;4062;49.844;8.120;2023-03-31T01:57:54;98341.66;;;13.97;56.09
8039;BME280;4062;49.844;8.120;2023-03-31T02:00:12;98339.00;;;13.97;56.13
8039;BME280;4062;49.844;8.120;2023-03-31T02:02:31;98334.66;;;13.96;56.12
8039;BME280;4062;49.844;8.120;2023-03-31T02:04:40;98330.19;;;13.97;56.15
8039;BME280;4062;49.844;8.120;2023-03-31T02:06:46;98330.13;;;13.98;56.20
8039;BME280;4062;49.844;8.120;2023-03-31T02:09:02;98320.44;;;13.97;56.15
8039;BME280;4062;49.844;8.120;2023-03-31T02:11:09;98316.91;;;13.97;56.13
8039;BME280;4062;49.844;8.120;2023-03-31T02:13:12;98319.56;;;13.97;56.06
8039;BME280;4062;49.844;8.120;2023-03-31T02:15:23;98314.25;;;13.97;56.08
8039;BME280;4062;49.844;8.120;2023-03-31T02:17:27;98315.13;;;13.97;56.10
8039;BME280;4062;49.844;8.120;2023-03-31T02:19:36;98306.28;;;13.97;56.11
8039;BME280;4062;49.844;8.120;2023-03-31T02:21:41;98304.50;;;13.97;56.16
8039;BME280;4062;49.844;8.120;2023-03-31T02:23:43;98293.00;;;13.97;56.16
8039;BME280;4062;49.844;8.120;2023-03-31T02:25:56;98299.19;;;13.97;56.12
8039;BME280;4062;49.844;8.120;2023-03-31T02:28:03;98289.50;;;13.96;56.17
8039;BME280;4062;49.844;8.120;2023-03-31T02:30:09;98286.84;;;13.96;56.18
8039;BME280;4062;49.844;8.120;2023-03-31T02:34:16;98288.56;;;13.97;56.17
8039;BME280;4062;49.844;8.120;2023-03-31T02:36:18;98285.91;;;13.97;56.09
8039;BME280;4062;49.844;8.120;2023-03-31T02:38:21;98285.03;;;13.97;56.13
8039;BME280;4062;49.844;8.120;2023-03-31T02:40:22;98274.41;;;13.97;56.21
8039;BME280;4062;49.844;8.120;2023-03-31T02:42:27;98272.63;;;13.97;56.12
8039;BME280;4062;49.844;8.120;2023-03-31T02:44:29;98253.16;;;13.97;56.21
8039;BME280;4062;49.844;8.120;2023-03-31T02:46:31;98257.53;;;13.98;56.11
8039;BME280;4062;49.844;8.120;2023-03-31T02:48:37;98242.53;;;13.97;56.24
8039;BME280;4062;49.844;8.120;2023-03-31T02:53:47;98225.66;;;13.98;56.14
8039;BME280;4062;49.844;8.120;2023-03-31T02:58:25;98203.59;;;13.97;56.19
8039;BME280;4062;49.844;8.120;2023-03-31T03:05:34;98176.16;;;13.97;56.16
8039;BME280;4062;49.844;8.120;2023-03-31T03:08:23;98189.44;;;13.97;56.23
8039;BME280;4062;49.844;8.120;2023-03-31T03:10:41;98186.78;;;13.97;56.13
8039;BME280;4062;49.844;8.120;2023-03-31T03:13:08;98183.19;;;13.98;56.00
8039;BME280;4062;49.844;8.120;2023-03-31T03:17:38;98161.09;;;13.97;56.31
8039;BME280;4062;49.844;8.120;2023-03-31T03:19:41;98162.88;;;13.97;56.03
8039;BME280;4062;49.844;8.120;2023-03-31T03:21:43;98156.72;;;13.96;56.22
8039;BME280;4062;49.844;8.120;2023-03-31T03:23:45;98151.41;;;13.96;56.16
8039;BME280;4062;49.844;8.120;2023-03-31T03:25:47;98144.28;;;13.97;56.09
8039;BME280;4062;49.844;8.120;2023-03-31T03:27:48;98133.66;;;13.97;56.09
8039;BME280;4062;49.844;8.120;2023-03-31T03:29:49;98135.50;;;13.96;56.04
8039;BME280;4062;49.844;8.120;2023-03-31T03:31:51;98138.97;;;13.97;56.10
8039;BME280;4062;49.844;8.120;2023-03-31T03:33:52;98142.50;;;13.97;56.08
8039;BME280;4062;49.844;8.120;2023-03-31T03:35:54;98143.44;;;13.96;56.17
8039;BME280;4062;49.844;8.120;2023-03-31T03:37:55;98131.03;;;13.97;56.04
8039;BME280;4062;49.844;8.120;2023-03-31T03:39:56;98115.09;;;13.97;56.16
8039;BME280;4062;49.844;8.120;2023-03-31T03:42:03;98111.59;;;13.96;56.12
8039;BME280;4062;49.844;8.120;2023-03-31T03:44:10;98108.94;;;13.96;56.10
8039;BME280;4062;49.844;8.120;2023-03-31T03:46:12;98093.00;;;13.96;56.11
8039;BME280;4062;49.844;8.120;2023-03-31T03:48:19;98088.53;;;13.97;56.16
8039;BME280;4062;49.844;8.120;2023-03-31T03:50:27;98089.41;;;13.97;56.17
8039;BME280;4062;49.844;8.120;2023-03-31T03:52:28;98078.78;;;13.97;56.16
8039;BME280;4062;49.844;8.120;2023-03-31T03:54:30;98079.63;;;13.98;56.19
8039;BME280;4062;49.844;8.120;2023-03-31T03:56:40;98065.50;;;13.97;56.06
8039;BME280;4062;49.844;8.120;2023-03-31T03:58:43;98067.28;;;13.97;56.09
8039;BME280;4062;49.844;8.120;2023-03-31T04:00:45;98075.25;;;13.97;56.10
8039;BME280;4062;49.844;8.120;2023-03-31T04:02:49;98082.38;;;13.96;56.16
8039;BME280;4062;49.844;8.120;2023-03-31T04:04:57;98095.66;;;13.96;56.23
8039;BME280;4062;49.844;8.120;2023-03-31T04:06:58;98094.72;;;13.97;56.19
8039;BME280;4062;49.844;8.120;2023-03-31T04:08:59;98082.38;;;13.96;56.10
8039;BME280;4062;49.844;8.120;2023-03-31T04:11:01;98069.94;;;13.97;56.33
8039;BME280;4062;49.844;8.120;2023-03-31T04:13:06;98069.94;;;13.97;56.05
8039;BME280;4062;49.844;8.120;2023-03-31T04:15:07;98067.28;;;13.97;56.09
8039;BME280;4062;49.844;8.120;2023-03-31T04:17:09;98062.84;;;13.97;56.13
8039;BME280;4062;49.844;8.120;2023-03-31T04:19:16;98049.66;;;13.96;56.06
8039;BME280;4062;49.844;8.120;2023-03-31T04:21:18;98053.16;;;13.96;56.05
8039;BME280;4062;49.844;8.120;2023-03-31T04:23:29;98053.16;;;13.96;56.22
8039;BME280;4062;49.844;8.120;2023-03-31T04:25:30;98048.69;;;13.97;56.10
8039;BME280;4062;49.844;8.120;2023-03-31T04:27:32;98043.38;;;13.97;56.06
8039;BME280;4062;49.844;8.120;2023-03-31T04:29:35;98037.25;;;13.96;56.12
8039;BME280;4062;49.844;8.120;2023-03-31T04:31:37;98031.94;;;13.96;56.10
8039;BME280;4062;49.844;8.120;2023-03-31T04:33:55;98041.59;;;13.97;56.19
8039;BME280;4062;49.844;8.120;2023-03-31T04:36:16;98040.72;;;13.97;56.29
8039;BME280;4062;49.844;8.120;2023-03-31T04:38:24;98053.16;;;13.96;56.19
8039;BME280;4062;49.844;8.120;2023-03-31T04:40:55;98043.38;;;13.97;56.12
8039;BME280;4062;49.844;8.120;2023-03-31T04:43:00;98041.59;;;13.97;56.18
8039;BME280;4062;49.844;8.120;2023-03-31T04:45:02;98042.53;;;13.96;56.17
8039;BME280;4062;49.844;8.120;2023-03-31T04:47:04;98034.59;;;13.96;56.23
8039;BME280;4062;49.844;8.120;2023-03-31T04:49:10;98039.03;;;13.96;56.11
8039;BME280;4062;49.844;8.120;2023-03-31T04:51:14;98027.47;;;13.97;56.02
8039;BME280;4062;49.844;8.120;2023-03-31T04:53:18;98023.09;;;13.96;56.16
8039;BME280;4062;49.844;8.120;2023-03-31T04:55:20;98028.41;;;13.96;56.09
8039;BME280;4062;49.844;8.120;2023-03-31T04:57:22;98032.78;;;13.97;56.13
8039;BME280;4062;49.844;8.120;2023-03-31T04:59:23;98026.63;;;13.96;56.11
8039;BME280;4062;49.844;8.120;2023-03-31T05:01:48;98025.69;;;13.97;56.11
8039;BME280;4062;49.844;8.120;2023-03-31T05:03:49;98034.59;;;13.96;56.18
8039;BME280;4062;49.844;8.120;2023-03-31T05:05:51;98032.78;;;13.97;56.21
8039;BME280;4062;49.844;8.120;2023-03-31T05:08:18;98019.50;;;13.97;56.28
8039;BME280;4062;49.844;8.120;2023-03-31T05:10:24;98008.03;;;13.96;56.11
8039;BME280;4062;49.844;8.120;2023-03-31T05:12:32;98002.72;;;13.96;56.12
8039;BME280;4062;49.844;8.120;2023-03-31T05:14:36;97994.75;;;13.96;56.09
8039;BME280;4062;49.844;8.120;2023-03-31T05:16:41;97987.63;;;13.97;56.15
8039;BME280;4062;49.844;8.120;2023-03-31T05:18:43;97982.31;;;13.97;56.21
8039;BME280;4062;49.844;8.120;2023-03-31T05:20:45;97976.16;;;13.96;56.13
8039;BME280;4062;49.844;8.120;2023-03-31T05:23:11;97967.34;;;13.96;56.16
8039;BME280;4062;49.844;8.120;2023-03-31T05:25:36;97954.06;;;13.96;56.20
8039;BME280;4062;49.844;8.120;2023-03-31T05:27:54;97941.66;;;13.96;56.02
8039;BME280;4062;49.844;8.120;2023-03-31T05:30:02;97941.66;;;13.96;56.04
8039;BME280;4062;49.844;8.120;2023-03-31T05:32:14;97941.66;;;13.96;56.13
8039;BME280;4062;49.844;8.120;2023-03-31T05:34:17;97943.44;;;13.96;56.06
8039;BME280;4062;49.844;8.120;2023-03-31T05:36:36;97940.78;;;13.96;56.10
8039;BME280;4062;49.844;8.120;2023-03-31T05:38:46;97919.53;;;13.96;56.15
8039;BME280;4062;49.844;8.120;2023-03-31T05:41:11;97901.81;;;13.96;56.10
8039;BME280;4062;49.844;8.120;2023-03-31T05:43:19;97899.16;;;13.96;56.06
8039;BME280;4062;49.844;8.120;2023-03-31T05:45:24;97899.16;;;13.96;56.06
8039;BME280;4062;49.844;8.120;2023-03-31T05:47:28;97893.84;;;13.96;56.21
8039;BME280;4062;49.844;8.120;2023-03-31T05:49:48;97884.94;;;13.97;56.21
8039;BME280;4062;49.844;8.120;2023-03-31T05:52:32;97867.31;;;13.96;56.18
8039;BME280;4062;49.844;8.120;2023-03-31T06:02:04;97846.06;;;13.96;56.15
8039;BME280;4062;49.844;8.120;2023-03-31T06:05:17;97830.13;;;13.96;56.24
8039;BME280;4062;49.844;8.120;2023-03-31T06:08:33;97808.88;;;13.96;56.15
8039;BME280;4062;49.844;8.120;2023-03-31T06:11:29;97808.03;;;13.96;56.26
8039;BME280;4062;49.844;8.120;2023-03-31T06:13:32;97811.53;;;13.96;56.15
8039;BME280;4062;49.844;8.120;2023-03-31T06:15:59;97808.88;;;13.96;56.18
8039;BME280;4062;49.844;8.120;2023-03-31T06:18:04;97803.56;;;13.96;56.06
8039;BME280;4062;49.844;8.120;2023-03-31T06:20:31;97802.72;;;13.96;56.20
8039;BME280;4062;49.844;8.120;2023-03-31T06:22:36;97800.06;;;13.96;56.09
8039;BME280;4062;49.844;8.120;2023-03-31T06:24:37;97788.50;;;13.97;56.26
8039;BME280;4062;49.844;8.120;2023-03-31T06:26:39;97785.84;;;13.97;56.03
8039;BME280;4062;49.844;8.120;2023-03-31T06:28:41;97794.66;;;13.97;56.12
8039;BME280;4062;49.844;8.120;2023-03-31T06:30:42;97787.66;;;13.96;56.12
8039;BME280;4062;49.844;8.120;2023-03-31T06:32:44;97774.38;;;13.96;56.17
8039;BME280;4062;49.844;8.120;2023-03-31T06:34:45;97768.13;;;13.97;56.21
8039;BME280;4062;49.844;8.120;2023-03-31T06:36:46;97761.09;;;13.96;56.09
8039;BME280;4062;49.844;8.120;2023-03-31T06:38:49;97754.91;;;13.96;56.17
8039;BME280;4062;49.844;8.120;2023-03-31T06:40:50;97746.88;;;13.97;56.21
8039;BME280;4062;49.844;8.120;2023-03-31T06:42:51;97747.81;;;13.96;56.24
8039;BME280;4062;49.844;8.120;2023-03-31T06:44:53;97739.84;;;13.96;56.09
8039;BME280;4062;49.844;8.120;2023-03-31T06:46:55;97745.16;;;13.96;56.08
8039;BME280;4062;49.844;8.120;2023-03-31T06:48:56;97730.06;;;13.97;56.10
8039;BME280;4062;49.844;8.120;2023-03-31T06:51:02;97737.19;;;13.96;56.15
8039;BME280;4062;49.844;8.120;2023-03-31T06:53:04;97739.84;;;13.96;56.04
8039;BME280;4062;49.844;8.120;2023-03-31T06:55:06;97750.47;;;13.96;56.06
8039;BME280;4062;49.844;8.120;2023-03-31T06:57:08;97742.50;;;13.96;56.10
8039;BME280;4062;49.844;8.120;2023-03-31T06:59:11;97758.44;;;13.96;56.15
8039;BME280;4062;49.844;8.120;2023-03-31T07:01:13;97753.97;;;13.97;56.18
8039;BME280;4062;49.844;8.120;2023-03-31T07:03:15;97777.03;;;13.96;56.15
8039;BME280;4062;49.844;8.120;2023-03-31T07:05:22;97817.69;;;13.97;56.22
8039;BME280;4062;49.844;8.120;2023-03-31T07:07:30;97804.41;;;13.97;56.15
8039;BME280;4062;49.844;8.120;2023-03-31T07:09:33;97797.31;;;13.97;56.19
8039;BME280;4062;49.844;8.120;2023-03-31T07:11:34;97804.41;;;13.97;56.12
8039;BME280;4062;49.844;8.120;2023-03-31T07:13:36;97810.59;;;13.97;56.21
8039;BME280;4062;49.844;8.120;2023-03-31T07:15:37;97807.06;;;13.97;56.16
8039;BME280;4062;49.844;8.120;2023-03-31T07:17:39;97792.00;;;13.97;56.35
8039;BME280;4062;49.844;8.120;2023-03-31T07:19:49;97810.59;;;13.97;56.11
8039;BME280;4062;49.844;8.120;2023-03-31T07:21:51;97807.06;;;13.97;56.24
8039;BME280;4062;49.844;8.120;2023-03-31T07:23:53;97803.56;;;13.96;56.15
8039;BME280;4062;49.844;8.120;2023-03-31T07:25:55;97789.34;;;13.97;56.31
8039;BME280;4062;49.844;8.120;2023-03-31T07:27:56;97788.50;;;13.97;56.12
8039;BME280;4062;49.844;8.120;2023-03-31T07:29:57;97781.38;;;13.97;56.19
8039;BME280;4062;49.844;8.120;2023-03-31T07:32:02;97777.03;;;13.96;56.18
8039;BME280;4062;49.844;8.120;2023-03-31T07:34:03;97772.56;;;13.97;56.19
8039;BME280;4062;49.844;8.120;2023-03-31T07:36:06;97764.50;;;13.98;56.20
8039;BME280;4062;49.844;8.120;2023-03-31T07:38:11;97761.09;;;13.96;56.15
8039;BME280;4062;49.844;8.120;2023-03-31T07:40:16;97778.72;;;13.97;56.24
8039;BME280;4062;49.844;8.120;2023-03-31T07:42:18;97777.78;;;13.98;56.22
8039;BME280;4062;49.844;8.120;2023-03-31T07:44:19;97774.25;;;13.98;56.04
8039;BME280;4062;49.844;8.120;2023-03-31T07:46:25;97780.44;;;13.98;56.02
8039;BME280;4062;49.844;8.120;2023-03-31T07:48:27;97784.81;;;13.99;56.07
8039;BME280;4062;49.844;8.120;2023-03-31T07:50:29;97779.50;;;13.99;56.11
8039;BME280;4062;49.844;8.120;2023-03-31T07:52:32;97783.09;;;13.98;56.09
8039;BME280;4062;49.844;8.120;2023-03-31T07:54:34;97783.94;;;13.99;56.20
8039;BME280;4062;49.844;8.120;2023-03-31T07:56:36;97785.75;;;13.98;56.20
8039;BME280;4062;49.844;8.120;2023-03-31T07:58:37;97792.78;;;13.99;56.09
8039;BME280;4062;49.844;8.120;2023-03-31T08:00:39;97783.00;;;14.00;56.07
8039;BME280;4062;49.844;8.120;2023-03-31T08:02:42;97792.78;;;13.99;56.09
8039;BME280;4062;49.844;8.120;2023-03-31T08:04:45;97795.44;;;13.99;56.03
8039;BME280;4062;49.844;8.120;2023-03-31T08:06:47;97789.25;;;13.99;56.14
8039;BME280;4062;49.844;8.120;2023-03-31T08:08:51;97807.84;;;13.99;56.23
8039;BME280;4062;49.844;8.120;2023-03-31T08:10:52;97811.34;;;13.99;56.24
8039;BME280;4062;49.844;8.120;2023-03-31T08:12:54;97805.19;;;13.99;56.06
8039;BME280;4062;49.844;8.120;2023-03-31T08:14:56;97803.41;;;13.99;56.15
8039;BME280;4062;49.844;8.120;2023-03-31T08:17:09;97794.56;;;13.99;56.21
8039;BME280;4062;49.844;8.120;2023-03-31T08:19:11;97783.94;;;13.99;56.06
8039;BME280;4062;49.844;8.120;2023-03-31T08:21:18;97771.53;;;13.99;56.16
8039;BME280;4062;49.844;8.120;2023-03-31T08:23:22;97768.88;;;13.99;56.15
8039;BME280;4062;49.844;8.120;2023-03-31T08:25:24;97766.22;;;13.99;56.16
8039;BME280;4062;49.844;8.120;2023-03-31T08:27:35;97763.56;;;13.99;56.00
8039;BME280;4062;49.844;8.120;2023-03-31T08:29:40;97762.59;;;14.00;56.12
8039;BME280;4062;49.844;8.120;2023-03-31T08:31:45;97761.63;;;14.01;56.14
8039;BME280;4062;49.844;8.120;2023-03-31T08:33:49;97752.84;;;14.01;55.99
8039;BME280;4062;49.844;8.120;2023-03-31T08:35:52;97760.69;;;14.02;56.07
8039;BME280;4062;49.844;8.120;2023-03-31T08:37:54;97759.84;;;14.02;55.99
8039;BME280;4062;49.844;8.120;2023-03-31T08:39:56;97750.06;;;14.02;56.02
8039;BME280;4062;49.844;8.120;2023-03-31T08:46:55;97733.31;;;14.02;56.17
8039;BME280;4062;49.844;8.120;2023-03-31T08:48:59;97716.50;;;14.01;56.22
8039;BME280;4062;49.844;8.120;2023-03-31T08:51:09;97722.69;;;14.02;56.17
8039;BME280;4062;49.844;8.120;2023-03-31T08:53:34;97726.16;;;14.02;56.14
8039;BME280;4062;49.844;8.120;2023-03-31T08:55:58;97732.44;;;14.01;56.02
8039;BME280;4062;49.844;8.120;2023-03-31T08:58:17;97732.44;;;14.01;56.16
8039;BME280;4062;49.844;8.120;2023-03-31T09:00:33;97743.06;;;14.01;56.11
8039;BME280;4062;49.844;8.120;2023-03-31T09:12:15;97737.66;;;14.03;56.07
8039;BME280;4062;49.844;8.120;2023-03-31T09:14:38;97741.16;;;14.03;56.12
8039;BME280;4062;49.844;8.120;2023-03-31T09:19:43;97730.53;;;14.03;56.13
8039;BME280;4062;49.844;8.120;2023-03-31T09:21:54;97727.03;;;14.03;56.00
8039;BME280;4062;49.844;8.120;2023-03-31T09:26:39;97734.13;;;14.02;56.15
8039;BME280;4062;49.844;8.120;2023-03-31T09:28:42;97724.38;;;14.03;56.05
8039;BME280;4062;49.844;8.120;2023-03-31T09:30:48;97732.34;;;14.03;56.10
8039;BME280;4062;49.844;8.120;2023-03-31T09:33:38;97726.16;;;14.02;56.00
8039;BME280;4062;49.844;8.120;2023-03-31T09:35:27;97720.03;;;14.02;56.06
8039;BME280;4062;49.844;8.120;2023-03-31T09:37:33;97717.25;;;14.03;56.12
8039;BME280;4062;49.844;8.120;2023-03-31T09:39:37;97701.44;;;14.02;56.06
8039;BME280;4062;49.844;8.120;2023-03-31T09:41:42;97704.09;;;14.02;55.95
8039;BME280;4062;49.844;8.120;2023-03-31T09:43:44;97707.59;;;14.02;56.05
8039;BME280;4062;49.844;8.120;2023-03-31T09:45:56;97707.59;;;14.02;56.01
8039;BME280;4062;49.844;8.120;2023-03-31T09:48:03;97700.56;;;14.01;56.20
8039;BME280;4062;49.844;8.120;2023-03-31T09:50:09;97688.16;;;14.02;56.05
8039;BME280;4062;49.844;8.120;2023-03-31T09:54:38;97679.25;;;14.03;55.93
8039;BME280;4062;49.844;8.120;2023-03-31T09:58:48;97703.13;;;14.03;56.24
8039;BME280;4062;49.844;8.120;2023-03-31T10:01:07;97731.47;;;14.02;56.18
8039;BME280;4062;49.844;8.120;2023-03-31T10:03:12;97721.72;;;14.03;56.19
8039;BME280;4062;49.844;8.120;2023-03-31T10:05:36;97720.88;;;14.02;56.13
8039;BME280;4062;49.844;8.120;2023-03-31T10:07:40;97715.56;;;14.02;56.12
8039;BME280;4062;49.844;8.120;2023-03-31T10:09:42;97712.91;;;14.02;56.13
8039;BME280;4062;49.844;8.120;2023-03-31T10:12:03;97720.03;;;14.02;56.05
8039;BME280;4062;49.844;8.120;2023-03-31T10:14:13;97706.75;;;14.02;56.07
8039;BME280;4062;49.844;8.120;2023-03-31T10:16:31;97710.25;;;14.02;55.93
8039;BME280;4062;49.844;8.120;2023-03-31T10:18:37;97710.25;;;14.02;56.13
8039;BME280;4062;49.844;8.120;2023-03-31T10:20:44;97707.59;;;14.02;56.02
8039;BME280;4062;49.844;8.120;2023-03-31T10:22:50;97702.28;;;14.02;56.11
8039;BME280;4062;49.844;8.120;2023-03-31T10:24:52;97702.28;;;14.02;56.05
8039;BME280;4062;49.844;8.120;2023-03-31T10:26:57;97689.88;;;14.03;56.19
8039;BME280;4062;49.844;8.120;2023-03-31T10:29:10;97691.66;;;14.02;55.99
8039;BME280;4062;49.844;8.120;2023-03-31T10:31:12;97680.19;;;14.02;56.13
8039;BME280;4062;49.844;8.120;2023-03-31T10:33:21;97680.94;;;14.04;55.99
8039;BME280;4062;49.844;8.120;2023-03-31T10:35:30;97667.75;;;14.02;56.04
8039;BME280;4062;49.844;8.120;2023-03-31T10:37:35;97659.78;;;14.02;56.01
8039;BME280;4062;49.844;8.120;2023-03-31T10:39:37;97656.19;;;14.03;56.16
8039;BME280;4062;49.844;8.120;2023-03-31T10:41:39;97650.88;;;14.03;55.98
8039;BME280;4062;49.844;8.120;2023-03-31T10:43:43;97647.28;;;14.04;55.99
8039;BME280;4062;49.844;8.120;2023-03-31T10:45:59;97644.59;;;14.04;56.07
8039;BME280;4062;49.844;8.120;2023-03-31T10:48:02;97634.00;;;14.04;56.12
8039;BME280;4062;49.844;8.120;2023-03-31T10:50:13;97634.09;;;14.03;56.12
8039;BME280;4062;49.844;8.120;2023-03-31T10:52:20;97632.16;;;14.05;56.02
8039;BME280;4062;49.844;8.120;2023-03-31T10:54:22;97617.09;;;14.05;56.21
8039;BME280;4062;49.844;8.120;2023-03-31T10:56:37;97624.22;;;14.05;56.11
8039;BME280;4062;49.844;8.120;2023-03-31T11:01:11;97629.50;;;14.05;56.03
8039;BME280;4062;49.844;8.120;2023-03-31T11:05:32;97626.84;;;14.05;56.13
8039;BME280;4062;49.844;8.120;2023-03-31T11:12:30;97633.03;;;14.05;55.96
8039;BME280;4062;49.844;8.120;2023-03-31T11:17:00;97630.38;;;14.05;55.99
8039;BME280;4062;49.844;8.120;2023-03-31T11:19:10;97637.47;;;14.05;55.91
8039;BME280;4062;49.844;8.120;2023-03-31T11:23:43;97631.34;;;14.04;56.05
8039;BME280;4062;49.844;8.120;2023-03-31T11:26:10;97623.38;;;14.04;56.11
8039;BME280;4062;49.844;8.120;2023-03-31T11:28:25;97621.56;;;14.05;56.08
8039;BME280;4062;49.844;8.120;2023-03-31T11:30:49;97624.22;;;14.05;55.92
8039;BME280;4062;49.844;8.120;2023-03-31T11:42:05;97623.38;;;14.04;56.13
8039;BME280;4062;49.844;8.120;2023-03-31T11:44:16;97629.50;;;14.05;56.17
8039;BME280;4062;49.844;8.120;2023-03-31T11:46:26;97623.38;;;14.04;56.06
8039;BME280;4062;49.844;8.120;2023-03-31T11:50:54;97625.91;;;14.06;55.99
8039;BME280;4062;49.844;8.120;2023-03-31T11:53:12;97622.41;;;14.05;56.03
8039;BME280;4062;49.844;8.120;2023-03-31T11:55:21;97617.94;;;14.06;55.93
8039;BME280;4062;49.844;8.120;2023-03-31T12:00:22;97639.19;;;14.06;56.05
8039;BME280;4062;49.844;8.120;2023-03-31T12:02:45;97686.16;;;14.05;55.91
8039;BME280;4062;49.844;8.120;2023-03-31T12:04:53;97628.56;;;14.06;55.95
8039;BME280;4062;49.844;8.120;2023-03-31T12:08:02;97643.66;;;14.05;55.97
8039;BME280;4062;49.844;8.120;2023-03-31T12:12:14;97611.78;;;14.05;56.00
8039;BME280;4062;49.844;8.120;2023-03-31T12:17:11;97602.00;;;14.06;55.98
8039;BME280;4062;49.844;8.120;2023-03-31T12:19:21;97587.91;;;14.05;55.98
8039;BME280;4062;49.844;8.120;2023-03-31T12:21:25;97589.69;;;14.05;56.11
8039;BME280;4062;49.844;8.120;2023-03-31T12:23:33;97592.34;;;14.05;56.00
8039;BME280;4062;49.844;8.120;2023-03-31T12:28:00;97578.13;;;14.06;55.88
8039;BME280;4062;49.844;8.120;2023-03-31T12:30:05;97578.13;;;14.06;55.93
8039;BME280;4062;49.844;8.120;2023-03-31T12:32:17;97585.25;;;14.05;56.09
8039;BME280;4062;49.844;8.120;2023-03-31T12:34:21;97584.28;;;14.06;56.05
8039;BME280;4062;49.844;8.120;2023-03-31T12:41:53;97608.19;;;14.06;56.14
8039;BME280;4062;49.844;8.120;2023-03-31T12:49:25;97597.66;;;14.05;56.04
8039;BME280;4062;49.844;8.120;2023-03-31T12:56:18;97633.03;;;14.05;56.06
8039;BME280;4062;49.844;8.120;2023-03-31T13:00:27;97636.66;;;14.04;56.14
8039;BME280;4062;49.844;8.120;2023-03-31T13:02:33;97638.34;;;14.05;56.00
8039;BME280;4062;49.844;8.120;2023-03-31T13:04:36;97642.78;;;14.05;56.08
8039;BME280;4062;49.844;8.120;2023-03-31T13:08:58;97624.22;;;14.05;56.04
8039;BME280;4062;49.844;8.120;2023-03-31T13:11:04;97611.91;;;14.04;56.14
8039;BME280;4062;49.844;8.120;2023-03-31T13:13:13;97610.09;;;14.04;56.10
8039;BME280;4062;49.844;8.120;2023-03-31T13:15:18;97610.09;;;14.04;56.12
8039;BME280;4062;49.844;8.120;2023-03-31T13:17:26;97608.28;;;14.05;56.10
8039;BME280;4062;49.844;8.120;2023-03-31T13:19:35;97607.44;;;14.04;55.98
8039;BME280;4062;49.844;8.120;2023-03-31T13:21:57;97606.50;;;14.05;55.99
8039;BME280;4062;49.844;8.120;2023-03-31T13:24:06;97588.84;;;14.04;56.17
8039;BME280;4062;49.844;8.120;2023-03-31T13:26:37;97564.94;;;14.04;56.17
8039;BME280;4062;49.844;8.120;2023-03-31T13:28:40;97561.34;;;14.05;56.06
8039;BME280;4062;49.844;8.120;2023-03-31T13:33:11;97557.81;;;14.05;56.19
8039;BME280;4062;49.844;8.120;2023-03-31T13:35:20;97559.63;;;14.04;56.13
8039;BME280;4062;49.844;8.120;2023-03-31T13:37:39;97568.44;;;14.05;56.05
8039;BME280;4062;49.844;8.120;2023-03-31T13:49:48;97556.97;;;14.04;56.06
8039;BME280;4062;49.844;8.120;2023-03-31T13:51:58;97549.84;;;14.05;56.10